Time;durP1;ratioP1;P1;durP2;ratioP2;P2;SDS_P1;SDS_P2;PMS_P1;PMS_P2;Temp;Humidity;BMP_temperature;BMP_pressure;BME280_temperature;BME280_humidity;BME280_pressure;Samples;Min_cycle;Max_cycle;Signal;HPM_P1;HPM_P2
2022/09/16 05:04:02;;;;;;;28.85;21.35;;;;;;;13.15;100.00;96862.62;1871520;76;22294;-61
2022/09/16 05:06:32;;;;;;;24.10;17.85;;;;;;;13.11;100.00;96860.94;1826768;78;21209;-63
2022/09/16 05:09:01;;;;;;;19.30;14.33;;;;;;;13.16;100.00;96865.55;1824895;77;21239;-62
2022/09/16 05:11:33;;;;;;;17.25;11.40;;;;;;;13.21;100.00;96869.37;1823997;78;21682;-57
2022/09/16 05:14:03;;;;;;;10.72;9.63;;;;;;;13.27;100.00;96879.33;1824298;78;20968;-58
2022/09/16 05:16:31;;;;;;;12.63;9.63;;;;;;;13.33;100.00;96880.12;1826895;78;21131;-57
2022/09/16 05:18:59;;;;;;;10.80;9.70;;;;;;;13.41;100.00;96881.94;1825356;78;20990;-58
2022/09/16 05:21:27;;;;;;;11.75;10.55;;;;;;;13.48;100.00;96879.48;1806840;77;21244;-59
2022/09/16 05:23:54;;;;;;;11.08;9.55;;;;;;;13.55;100.00;96891.81;1793512;80;20951;-58
2022/09/16 05:26:24;;;;;;;12.55;9.75;;;;;;;13.60;100.00;96897.53;1788519;79;21449;-58
2022/09/16 05:28:51;;;;;;;10.68;9.58;;;;;;;13.68;100.00;96895.30;1797101;79;21105;-58
2022/09/16 05:31:25;;;;;;;11.25;9.73;;;;;;;13.76;100.00;96894.95;1786122;78;21065;-58
2022/09/16 05:34:05;;;;;;;14.68;10.70;;;;;;;13.85;100.00;96888.92;1785386;78;21889;-56
2022/09/16 05:36:40;;;;;;;13.68;11.38;;;;;;;13.94;100.00;96893.06;1764738;80;20896;-60
2022/09/16 05:39:07;;;;;;;14.60;10.13;;;;;;;13.99;100.00;96893.39;1768265;80;20952;-62
2022/09/16 05:41:37;;;;;;;12.28;9.13;;;;;;;14.04;100.00;96898.52;1777667;80;21489;-60
2022/09/16 05:44:06;;;;;;;13.83;9.30;;;;;;;14.07;100.00;96903.23;1743548;81;21050;-65
2022/09/16 05:46:33;;;;;;;12.68;9.95;;;;;;;14.09;100.00;96907.72;1762251;81;21778;-64
2022/09/16 05:49:01;;;;;;;11.88;9.20;;;;;;;14.13;100.00;96901.91;1773755;80;21502;-59
2022/09/16 05:51:28;;;;;;;11.28;8.68;;;;;;;14.15;100.00;96898.30;1772693;80;20890;-66
2022/09/16 05:53:59;;;;;;;8.60;7.50;;;;;;;14.19;100.00;96903.23;1760633;80;20936;-63
2022/09/16 05:56:28;;;;;;;10.15;7.70;;;;;;;14.23;100.00;96898.17;1748624;80;21430;-65
2022/09/16 05:58:58;;;;;;;10.03;8.23;;;;;;;14.28;100.00;96903.33;1775495;80;21970;-65
2022/09/16 06:01:31;;;;;;;10.65;8.65;;;;;;;14.39;100.00;96900.95;1760893;80;20973;-63
2022/09/16 06:04:00;;;;;;;10.43;6.67;;;;;;;14.46;100.00;96886.94;1780513;80;21433;-63
2022/09/16 06:06:35;;;;;;;7.75;6.00;;;;;;;14.46;100.00;96889.05;1767265;80;21406;-64
2022/09/16 06:09:17;;;;;;;;;;;;;;;14.46;100.00;96890.98;1775758;80;21474;-62
2022/09/16 06:11:46;;;;;;;12.50;7.85;;;;;;;14.46;100.00;96895.78;1773677;80;21224;-63
2022/09/16 06:14:13;;;;;;;10.23;7.10;;;;;;;14.43;100.00;96899.17;1763172;79;21155;-64
2022/09/16 06:16:42;;;;;;;11.83;6.28;;;;;;;14.42;100.00;96900.29;1754524;80;20983;-63
2022/09/16 06:19:14;;;;;;;6.95;6.03;;;;;;;14.42;100.00;96904.33;1771385;80;21470;-63
2022/09/16 06:21:42;;;;;;;7.92;6.12;;;;;;;14.46;100.00;96904.45;1766056;79;21591;-65
2022/09/16 06:24:10;;;;;;;9.58;6.45;;;;;;;14.53;100.00;96901.95;1750630;80;21772;-58
2022/09/16 06:26:40;;;;;;;8.78;5.53;;;;;;;14.58;100.00;96895.75;1769733;80;21002;-62
2022/09/16 06:29:07;;;;;;;11.25;5.45;;;;;;;14.59;100.00;96900.02;1761980;80;21498;-62
2022/09/16 06:31:36;;;;;;;8.23;6.22;;;;;;;14.63;100.00;96900.90;1754952;79;21092;-61
2022/09/16 06:34:04;;;;;;;12.15;6.30;;;;;;;14.66;100.00;96901.57;1750692;80;21038;-61
2022/09/16 06:36:35;;;;;;;9.83;6.47;;;;;;;14.71;100.00;96910.77;1766566;80;21051;-59
2022/09/16 06:39:10;;;;;;;16.55;6.70;;;;;;;14.73;100.00;96912.55;1759698;80;20994;-61
2022/09/16 06:41:46;;;;;;;8.90;5.60;;;;;;;14.80;100.00;96912.75;1759589;80;22387;-61
2022/09/16 06:44:13;;;;;;;6.75;5.33;;;;;;;14.90;100.00;96914.97;1767080;80;21047;-60
2022/09/16 06:46:43;;;;;;;7.72;5.60;;;;;;;14.96;100.00;96918.19;1767274;80;20899;-61
2022/09/16 06:49:10;;;;;;;7.97;5.65;;;;;;;14.97;100.00;96923.25;1774529;80;21248;-61
2022/09/16 06:51:36;;;;;;;9.48;5.83;;;;;;;14.97;100.00;96928.64;1763885;80;21055;-60
2022/09/16 06:54:06;;;;;;;7.15;4.85;;;;;;;14.99;100.00;96929.08;1749975;80;21106;-60
2022/09/16 06:56:37;;;;;;;9.18;5.22;;;;;;;15.01;100.00;96929.52;1773012;79;20972;-59
2022/09/16 06:59:02;;;;;;;9.23;5.62;;;;;;;15.02;100.00;96932.45;1774116;80;21047;-61
2022/09/16 07:01:30;;;;;;;12.43;5.70;;;;;;;15.05;100.00;96931.73;1774545;80;21234;-61
2022/09/16 07:03:57;;;;;;;12.37;5.72;;;;;;;15.13;100.00;96932.72;1770464;80;21558;-61
2022/09/16 07:06:28;;;;;;;6.83;4.97;;;;;;;15.24;100.00;96924.34;1752492;81;21007;-61
2022/09/16 07:08:55;;;;;;;7.75;5.05;;;;;;;15.40;100.00;96921.68;1760656;81;20991;-61
2022/09/16 07:11:22;;;;;;;8.35;5.05;;;;;;;15.58;100.00;96932.39;1749415;81;21549;-60
2022/09/16 07:13:49;;;;;;;7.62;5.20;;;;;;;15.65;100.00;96929.86;1744427;81;21269;-60
2022/09/16 07:16:20;;;;;;;7.85;5.72;;;;;;;15.64;99.42;96935.03;1764772;81;20932;-60
2022/09/16 07:18:47;;;;;;;8.75;5.55;;;;;;;15.62;99.27;96933.25;1761410;81;21003;-60
2022/09/16 07:21:18;;;;;;;9.78;5.62;;;;;;;15.62;98.94;96929.99;1767304;80;20962;-61
2022/09/16 07:23:45;;;;;;;10.63;5.78;;;;;;;15.68;98.24;96931.31;1773412;80;21142;-60
2022/09/16 07:26:16;;;;;;;7.28;5.37;;;;;;;15.78;98.44;96927.28;1808713;78;21117;-61
2022/09/16 07:28:47;;;;;;;11.38;5.80;;;;;;;15.88;96.16;96926.77;1809395;78;20939;-63
2022/09/16 07:31:17;;;;;;;6.80;4.78;;;;;;;15.97;96.44;96927.36;1805242;78;20937;-62
2022/09/16 07:33:47;;;;;;;8.35;4.55;;;;;;;16.07;95.34;96932.80;1766312;80;21532;-62
2022/09/16 07:36:18;;;;;;;9.53;5.22;;;;;;;16.20;94.76;96941.03;1820198;78;20938;-62
2022/09/16 07:38:45;;;;;;;8.45;5.42;;;;;;;16.24;93.21;96942.67;1815269;78;21111;-62
2022/09/16 07:41:17;;;;;;;11.83;5.30;;;;;;;16.20;92.39;96939.09;1815792;78;21073;-61
2022/09/16 07:43:45;;;;;;;9.00;5.83;;;;;;;16.24;92.76;96937.27;1776723;79;20903;-61
2022/09/16 07:46:13;;;;;;;7.42;5.30;;;;;;;16.40;92.95;96946.13;1818543;78;21066;-62
2022/09/16 07:48:40;;;;;;;8.03;5.00;;;;;;;16.58;91.78;96945.77;1802865;78;21093;-60
2022/09/16 07:51:16;;;;;;;8.93;5.62;;;;;;;16.63;90.23;96948.20;1820320;78;21127;-61
2022/09/16 07:53:43;;;;;;;10.88;5.55;;;;;;;16.54;88.20;96954.34;1805726;77;21396;-60
2022/09/16 07:56:17;;;;;;;8.20;5.17;;;;;;;16.29;89.12;96957.27;1811368;78;20938;-59
2022/09/16 07:58:45;;;;;;;10.03;5.83;;;;;;;16.12;90.38;96953.58;1811672;78;21061;-61
2022/09/16 08:01:12;;;;;;;7.12;5.12;;;;;;;15.98;91.00;96965.41;1809504;77;21443;-61
2022/09/16 08:03:39;;;;;;;8.70;5.45;;;;;;;15.86;90.82;96962.78;1813328;77;21044;-61
2022/09/16 08:06:15;;;;;;;7.47;5.87;;;;;;;15.71;91.00;96962.20;1819325;78;21098;-60
2022/09/16 08:08:43;;;;;;;8.20;6.20;;;;;;;15.62;91.87;96964.29;1819179;78;21619;-60
2022/09/16 08:11:11;;;;;;;10.82;6.60;;;;;;;15.57;91.78;96961.28;1816805;78;21089;-58
2022/09/16 08:13:40;;;;;;;11.08;5.62;;;;;;;15.54;91.67;96972.79;1821454;78;21041;-63
2022/09/16 08:16:10;;;;;;;7.85;5.83;;;;;;;15.51;92.16;96960.54;1817429;77;21745;-69
2022/09/16 08:18:39;;;;;;;11.43;5.90;;;;;;;15.56;92.05;96962.43;1811811;77;21030;-60
2022/09/16 08:21:17;;;;;;;9.55;6.65;;;;;;;15.60;92.15;96963.86;1823383;77;21094;-58
2022/09/16 08:23:45;;;;;;;9.68;5.67;;;;;;;15.63;91.71;96968.57;1818976;77;21026;-62
2022/09/16 08:26:13;;;;;;;6.97;5.42;;;;;;;15.59;91.61;96960.36;1775983;78;21073;-60
2022/09/16 08:28:42;;;;;;;8.70;5.47;;;;;;;15.55;92.22;96962.75;1783644;78;21074;-60
2022/09/16 08:31:09;;;;;;;9.30;5.83;;;;;;;15.51;92.07;96963.23;1784087;80;20973;-60
2022/09/16 08:33:38;;;;;;;8.75;5.53;;;;;;;15.42;92.24;96976.08;1778056;80;21307;-61
2022/09/16 08:36:10;;;;;;;8.05;5.87;;;;;;;15.32;92.94;96973.31;1752821;81;21065;-61
2022/09/16 08:38:43;;;;;;;11.38;5.40;;;;;;;15.25;93.23;96963.69;1745757;80;21141;-62
2022/09/16 08:41:52;;;;;;;7.97;4.87;;;;;;;15.24;93.80;96975.59;1758909;80;21529;-61
2022/09/16 08:45:08;;;;;;;9.23;5.47;;;;;;;15.29;94.23;96971.86;1762916;80;21572;-61
2022/09/16 08:48:01;;;;;;;11.65;5.75;;;;;;;15.32;93.25;96971.97;1767906;80;21101;-62
2022/09/16 08:50:36;;;;;;;9.33;6.17;;;;;;;15.33;92.46;96975.45;1763093;79;21128;-60
2022/09/16 08:53:06;;;;;;;8.65;5.37;;;;;;;15.33;92.67;96986.25;1764845;80;20896;-61
2022/09/16 08:55:39;;;;;;;9.25;5.37;;;;;;;15.33;92.49;96992.41;1771989;80;21102;-62
2022/09/16 08:58:39;;;;;;;9.03;4.87;;;;;;;15.37;91.78;96979.02;1769708;80;21040;-59
2022/09/16 09:01:28;;;;;;;12.55;6.03;;;;;;;15.44;92.25;96982.73;1769608;80;20980;-61
2022/09/16 09:03:55;;;;;;;13.22;5.37;;;;;;;15.57;92.31;96982.08;1767842;80;21034;-60
2022/09/16 09:06:46;;;;;;;12.05;5.85;;;;;;;15.66;91.20;96986.78;1762827;80;21100;-61
2022/09/16 09:09:28;;;;;;;10.65;5.08;;;;;;;15.68;90.42;96988.56;1767729;80;21947;-62
2022/09/16 09:12:00;;;;;;;11.25;5.47;;;;;;;15.67;89.56;96988.33;1763811;80;21073;-62
2022/09/16 09:15:00;;;;;;;11.20;5.58;;;;;;;15.61;89.89;96978.93;1811705;78;21494;-62
2022/09/16 09:18:04;;;;;;;8.48;5.30;;;;;;;15.61;89.79;96987.03;1817502;77;21012;-60
2022/09/16 09:20:46;;;;;;;8.18;5.05;;;;;;;15.59;89.49;96981.20;1785618;79;21123;-59
2022/09/16 09:23:53;;;;;;;6.70;4.40;;;;;;;15.56;89.50;96992.12;1737874;80;21309;-61
2022/09/16 09:26:40;;;;;;;7.85;5.00;;;;;;;15.53;89.49;96992.01;1821271;78;20969;-64
2022/09/16 09:29:29;;;;;;;8.58;5.10;;;;;;;15.52;89.36;96987.76;1815442;78;21490;-60
2022/09/16 09:32:13;;;;;;;10.35;5.78;;;;;;;15.48;88.66;96983.60;1818977;78;21015;-59
2022/09/16 09:35:15;;;;;;;8.33;4.75;;;;;;;15.48;88.81;96970.11;1771923;78;21569;-61
2022/09/16 09:38:07;;;;;;;7.78;4.80;;;;;;;15.54;89.00;96963.34;1777046;80;21242;-61
2022/09/16 09:40:45;;;;;;;11.22;5.10;;;;;;;15.65;88.48;96960.91;1776804;80;21042;-62
2022/09/16 09:43:17;;;;;;;8.68;4.67;;;;;;;15.70;88.64;96970.09;1814206;78;21144;-61
2022/09/16 09:46:05;;;;;;;8.95;4.72;;;;;;;15.76;87.74;96975.45;1809256;78;21110;-61
2022/09/16 09:48:43;;;;;;;8.20;4.95;;;;;;;15.78;88.08;96972.41;1811929;78;21102;-61
2022/09/16 09:51:31;;;;;;;6.28;4.53;;;;;;;15.78;87.03;96969.13;1813772;77;21202;-66
2022/09/16 09:54:06;;;;;;;7.95;5.60;;;;;;;15.78;87.51;96975.87;1802132;78;21026;-61
2022/09/16 09:56:37;;;;;;;9.78;5.03;;;;;;;15.92;86.85;96966.78;1818819;78;21500;-59
2022/09/16 09:59:32;;;;;;;10.63;5.75;;;;;;;16.18;86.98;96967.62;1815047;77;21020;-61
2022/09/16 10:02:02;;;;;;;7.70;4.78;;;;;;;16.50;86.25;96961.02;1773725;80;20943;-58
2022/09/16 10:04:34;;;;;;;5.95;3.67;;;;;;;16.95;84.84;96965.86;1817656;77;21102;-62
2022/09/16 10:07:01;;;;;;;6.90;3.55;;;;;;;17.22;82.92;96962.14;1813357;79;20934;-58
2022/09/16 10:09:28;;;;;;;8.25;3.45;;;;;;;17.36;82.22;96963.77;1812411;78;21002;-62
2022/09/16 10:11:55;;;;;;;4.83;2.75;;;;;;;17.36;77.88;96977.89;1804568;77;21028;-60
2022/09/16 10:14:35;;;;;;;6.97;3.12;;;;;;;17.22;75.24;96970.26;1819666;78;21070;-59
2022/09/16 10:17:04;;;;;;;7.53;3.10;;;;;;;17.08;75.09;96975.39;1814941;78;21256;-55
2022/09/16 10:19:34;;;;;;;5.53;3.00;;;;;;;16.88;74.06;96981.94;1814313;78;20973;-57
2022/09/16 10:22:10;;;;;;;5.28;2.95;;;;;;;16.66;73.84;96988.81;1813355;78;21042;-59
2022/09/16 10:24:40;;;;;;;4.45;2.80;;;;;;;16.44;73.86;96991.57;1821258;78;21414;-60
2022/09/16 10:27:27;;;;;;;6.42;2.80;;;;;;;16.30;74.49;96989.89;1822265;78;21026;-57
2022/09/16 10:30:14;;;;;;;4.03;2.60;;;;;;;16.22;75.25;96989.53;1814404;78;21237;-58
2022/09/16 10:32:49;;;;;;;3.42;2.15;;;;;;;16.15;75.13;96985.87;1817575;77;21107;-59
2022/09/16 10:35:27;;;;;;;5.00;3.17;;;;;;;16.11;74.73;96992.52;1813020;77;28222;-58
2022/09/16 10:38:10;;;;;;;6.42;2.80;;;;;;;16.16;75.40;96989.56;1835927;77;20997;-55
2022/09/16 10:40:39;;;;;;;7.35;2.67;;;;;;;16.24;75.28;96994.01;1809650;78;21388;-57
2022/09/16 10:43:11;;;;;;;6.30;2.92;;;;;;;16.43;76.27;96996.77;1813505;78;21122;-56
2022/09/16 10:45:49;;;;;;;3.27;2.60;;;;;;;16.59;74.18;97006.23;1811286;79;20941;-56
2022/09/16 10:48:19;;;;;;;5.80;2.80;;;;;;;16.61;73.97;97004.52;1816992;77;21559;-58
2022/09/16 10:50:58;;;;;;;4.33;2.72;;;;;;;16.66;73.72;96996.13;1825766;77;21499;-57
2022/09/16 10:53:34;;;;;;;4.65;2.40;;;;;;;16.68;72.60;97003.31;1815521;77;21468;-60
2022/09/16 10:56:04;;;;;;;9.00;2.27;;;;;;;16.67;70.79;97013.37;1817225;78;21248;-58
2022/09/16 10:58:31;;;;;;;6.62;2.27;;;;;;;16.64;70.69;97003.81;1818524;78;20961;-58
2022/09/16 11:01:27;;;;;;;4.08;2.00;;;;;;;16.75;69.47;97002.91;1815399;77;21095;-58
2022/09/16 11:04:11;;;;;;;3.85;2.15;;;;;;;16.88;68.21;96992.77;1810418;78;21147;-58
2022/09/16 11:07:13;;;;;;;4.55;2.45;;;;;;;16.91;67.91;96984.70;1816079;78;20966;-59
2022/09/16 11:10:18;;;;;;;8.03;2.10;;;;;;;16.91;69.22;96982.00;1813860;78;21125;-58
2022/09/16 11:13:15;;;;;;;3.15;1.90;;;;;;;17.01;67.23;96981.45;1811642;78;21137;-56
2022/09/16 11:15:55;;;;;;;;;;;;;;;17.11;65.29;96981.45;1824300;78;21062;-58
2022/09/16 11:18:36;;;;;;;5.87;1.90;;;;;;;17.22;66.89;96970.26;1803469;78;20239;-57
2022/09/16 11:21:12;;;;;;;4.72;2.08;;;;;;;17.37;67.03;96974.03;1820870;78;21102;-59
2022/09/16 11:24:17;;;;;;;3.83;2.40;;;;;;;17.56;66.62;96965.91;1812022;77;21079;-63
2022/09/16 11:27:06;;;;;;;3.87;2.10;;;;;;;17.72;65.91;96967.94;1820122;78;21023;-58
2022/09/16 11:30:05;;;;;;;2.90;1.50;;;;;;;17.81;64.71;96967.12;1806199;78;20872;-60
2022/09/16 11:33:22;;;;;;;2.80;1.27;;;;;;;18.00;61.16;96960.84;1819858;78;21033;-62
2022/09/16 11:36:15;;;;;;;3.87;1.22;;;;;;;18.27;58.54;96950.27;1820060;77;20872;-61
2022/09/16 11:39:25;;;;;;;4.28;1.60;;;;;;;18.59;58.19;96947.45;1804728;78;21115;-62
2022/09/16 11:42:00;;;;;;;3.77;1.32;;;;;;;18.76;56.58;96944.77;1745641;80;21014;-59
2022/09/16 11:44:48;;;;;;;4.10;1.40;;;;;;;18.79;55.42;96951.62;1812646;78;21103;-56
2022/09/16 11:47:34;;;;;;;4.53;1.75;;;;;;;18.77;55.59;96952.53;1814506;77;21485;-58
2022/09/16 11:50:09;;;;;;;3.15;1.60;;;;;;;18.76;55.84;96960.48;1809091;78;21598;-58
2022/09/16 11:52:48;;;;;;;;;;;;;;;18.58;53.87;96952.69;1822444;78;21647;-60
2022/09/16 11:55:32;;;;;;;3.22;1.80;;;;;;;18.26;56.22;96965.73;1817687;78;20206;-61
2022/09/16 11:58:06;;;;;;;3.42;1.50;;;;;;;17.95;57.08;96963.86;1816023;78;21048;-61
2022/09/16 12:00:33;;;;;;;1.87;1.30;;;;;;;17.63;57.42;96961.41;1791712;78;20957;-64
2022/09/16 12:03:11;;;;;;;4.30;1.55;;;;;;;17.42;59.21;96958.29;1818700;78;21006;-63
2022/09/16 12:06:02;;;;;;;3.37;1.30;;;;;;;17.31;59.70;96968.70;1814596;78;21087;-63
2022/09/16 12:09:08;;;;;;;4.55;1.82;;;;;;;17.28;61.00;96968.06;1811403;78;21047;-60
2022/09/16 12:11:47;;;;;;;2.87;1.27;;;;;;;17.28;61.26;96970.20;1767273;79;21016;-65
2022/09/16 12:14:30;;;;;;;3.62;1.47;;;;;;;17.22;60.17;96972.97;1731247;82;21077;-60
2022/09/16 12:17:01;;;;;;;4.92;1.40;;;;;;;17.17;60.29;96971.89;1741095;81;21085;-64
2022/09/16 12:19:33;;;;;;;3.33;1.70;;;;;;;17.25;61.05;96964.70;1740504;81;21783;-58
2022/09/16 12:22:32;;;;;;;2.85;1.52;;;;;;;17.34;61.25;96967.41;1755606;81;21539;-61
2022/09/16 12:25:16;;;;;;;3.20;1.50;;;;;;;17.45;59.78;96958.91;1755796;81;20993;-64
2022/09/16 12:27:55;;;;;;;4.00;1.90;;;;;;;17.67;58.40;96964.95;1746534;80;21071;-61
2022/09/16 12:30:44;;;;;;;2.40;1.42;;;;;;;17.87;58.71;96950.00;1756537;81;20980;-61
2022/09/16 12:33:21;;;;;;;6.60;2.62;;;;;;;17.97;58.55;96948.05;1744473;81;21081;-63
2022/09/16 12:36:17;;;;;;;4.75;2.10;;;;;;;17.99;59.24;96954.67;1809357;78;21068;-60
2022/09/16 12:38:44;;;;;;;;;;;;;;;17.88;57.92;96955.62;1820922;78;21026;-62
2022/09/16 12:42:02;;;;;;;6.70;2.30;;;;;;;17.68;58.03;96963.83;1808059;78;20192;-62
2022/09/16 12:45:04;;;;;;;2.90;2.10;;;;;;;17.53;58.98;96969.33;1806594;77;21050;-59
2022/09/16 12:47:56;;;;;;;4.50;2.30;;;;;;;17.36;59.49;96969.18;1760456;79;21261;-59
2022/09/16 12:51:01;;;;;;;6.65;2.50;;;;;;;17.26;60.92;96968.42;1764079;79;22701;-59
2022/09/16 12:53:48;;;;;;;3.87;2.42;;;;;;;17.30;60.68;96974.68;1805795;78;21040;-63
2022/09/16 12:56:57;;;;;;;2.65;1.70;;;;;;;17.64;61.66;96966.26;1796369;78;20963;-62
2022/09/16 13:00:08;;;;;;;5.12;1.80;;;;;;;18.17;58.76;96968.48;1763901;79;21504;-61
2022/09/16 13:02:40;;;;;;;4.85;1.82;;;;;;;18.59;55.99;96973.22;1752526;80;21160;-61
2022/09/16 13:05:15;;;;;;;3.60;2.00;;;;;;;18.77;54.44;96978.30;1759681;80;21053;-61
2022/09/16 13:07:42;;;;;;;4.37;1.90;;;;;;;18.66;53.46;96974.67;1734607;80;21567;-62
2022/09/16 13:10:26;;;;;;;3.35;1.98;;;;;;;18.52;54.30;96971.77;1763727;80;20870;-62
2022/09/16 13:12:55;;;;;;;4.42;2.55;;;;;;;18.50;54.64;96979.48;1812361;78;21099;-60
2022/09/16 13:15:32;;;;;;;4.20;2.72;;;;;;;18.41;54.89;96968.09;1813437;79;21354;-60
2022/09/16 13:18:19;;;;;;;4.92;2.80;;;;;;;18.50;53.81;96964.57;1809369;77;20964;-62
2022/09/16 13:20:57;;;;;;;6.42;2.00;;;;;;;18.41;53.90;96967.52;1764387;80;21053;-62
2022/09/16 13:23:32;;;;;;;3.10;2.10;;;;;;;18.28;53.29;96970.78;1769611;81;20993;-61
2022/09/16 13:26:02;;;;;;;4.28;2.25;;;;;;;18.06;54.59;96977.03;1767174;80;21025;-61
2022/09/16 13:28:38;;;;;;;4.12;2.05;;;;;;;17.85;54.96;96971.25;1774577;80;21118;-59
2022/09/16 13:31:21;;;;;;;3.35;1.77;;;;;;;17.66;55.84;96971.50;1772761;80;20967;-59
2022/09/16 13:34:02;;;;;;;4.25;1.70;;;;;;;17.52;56.75;96979.95;1769006;80;20977;-60
2022/09/16 13:36:33;;;;;;;6.78;1.62;;;;;;;17.51;57.98;96985.94;1766808;80;21146;-59
2022/09/16 13:39:03;;;;;;;2.47;1.70;;;;;;;17.55;58.42;96984.07;1758089;80;21566;-60
2022/09/16 13:41:43;;;;;;;3.05;1.57;;;;;;;17.65;58.17;96982.70;1763546;80;21323;-60
2022/09/16 13:44:40;;;;;;;2.83;1.75;;;;;;;17.78;57.95;96978.10;1763336;80;20993;-60
2022/09/16 13:47:15;;;;;;;6.62;1.90;;;;;;;18.00;58.08;96969.77;1766703;80;21452;-62
2022/09/16 13:49:59;;;;;;;3.87;1.30;;;;;;;18.12;56.64;96968.80;1771194;80;22145;-62
2022/09/16 13:52:34;;;;;;;3.92;1.52;;;;;;;18.13;57.04;96964.95;1765083;80;21125;-60
2022/09/16 13:55:04;;;;;;;3.98;1.22;;;;;;;18.11;56.74;96955.05;1774368;80;21109;-62
2022/09/16 13:57:59;;;;;;;3.47;1.40;;;;;;;18.04;55.74;96963.06;1810357;78;21487;-59
2022/09/16 14:00:40;;;;;;;1.80;1.30;;;;;;;18.02;56.88;96962.62;1814815;78;20963;-59
